Time;durP1;ratioP1;P1;durP2;ratioP2;P2;SDS_P1;SDS_P2;PMS_P1;PMS_P2;Temp;Humidity;BMP_temperature;BMP_pressure;BME280_temperature;BME280_humidity;BME280_pressure;Samples;Min_cycle;Max_cycle;Signal;HPM_P1;HPM_P2
2022/07/29 00:00:15;;;;;;;3.20;0.70;;;;;;;13.61;72.22;101868.53;2015846;29;20076;-70
2022/07/29 00:01:17;;;;;;;3.10;1.23;;;;;;;13.60;72.25;101874.81;2014662;29;38908;-70
2022/07/29 00:02:20;;;;;;;4.55;0.93;;;;;;;13.60;72.03;101865.88;2008351;29;20976;-69
2022/07/29 00:03:21;;;;;;;2.45;0.65;;;;;;;13.58;72.17;101871.28;2015341;29;25483;-69
2022/07/29 00:04:24;;;;;;;5.25;0.70;;;;;;;13.59;72.04;101869.50;2016057;29;25410;-69
2022/07/29 00:05:26;;;;;;;3.78;1.00;;;;;;;13.58;72.57;101865.91;2015247;29;20049;-69
2022/07/29 00:06:30;;;;;;;2.97;0.80;;;;;;;13.59;72.81;101873.06;2015206;29;32821;-70
2022/07/29 00:07:31;;;;;;;1.77;0.80;;;;;;;13.58;72.46;101862.34;2015030;29;26106;-70
2022/07/29 00:08:33;;;;;;;3.88;0.80;;;;;;;13.57;72.82;101866.84;2007810;29;30057;-70
2022/07/29 00:09:38;;;;;;;2.90;0.50;;;;;;;13.53;72.76;101854.34;2007577;29;38814;-70
2022/07/29 00:10:51;;;;;;;2.83;0.80;;;;;;;13.55;73.00;101866.88;2015303;29;32519;-70
2022/07/29 00:11:56;;;;;;;4.30;0.88;;;;;;;13.54;73.05;101866.91;2015568;29;33145;-69
2022/07/29 00:12:59;;;;;;;2.95;0.88;;;;;;;13.53;73.01;101860.63;2017207;29;29431;-69
2022/07/29 00:14:01;;;;;;;5.63;0.70;;;;;;;13.51;73.12;101858.88;2017118;29;30065;-70
2022/07/29 00:15:04;;;;;;;2.47;0.70;;;;;;;13.51;73.32;101859.78;2016897;29;27566;-70
2022/07/29 00:16:08;;;;;;;2.85;0.70;;;;;;;13.51;73.36;101862.47;2017173;29;27079;-70
2022/07/29 00:17:10;;;;;;;4.30;0.88;;;;;;;13.51;72.90;101858.88;2017056;29;29602;-70
2022/07/29 00:18:11;;;;;;;2.78;0.80;;;;;;;13.49;73.11;101858.03;2016996;29;28178;-70
2022/07/29 00:19:13;;;;;;;2.85;0.70;;;;;;;13.49;73.22;101858.03;2017001;29;30833;-70
2022/07/29 00:20:15;;;;;;;4.18;0.90;;;;;;;13.48;73.79;101864.34;2017091;29;33323;-70
2022/07/29 00:21:17;;;;;;;3.60;0.77;;;;;;;13.46;73.64;101855.38;2016885;29;20053;-70
2022/07/29 00:22:20;;;;;;;4.50;0.90;;;;;;;13.47;73.81;101851.78;2016451;29;26573;-70
2022/07/29 00:23:22;;;;;;;3.58;0.80;;;;;;;13.45;73.84;101848.25;2017232;29;26131;-70
2022/07/29 00:24:24;;;;;;;1.95;0.70;;;;;;;13.45;73.81;101851.81;2016640;29;20168;-70
2022/07/29 00:25:26;;;;;;;2.13;0.73;;;;;;;13.44;74.06;101854.53;2016399;29;33500;-70
2022/07/29 00:26:31;;;;;;;3.70;1.08;;;;;;;13.43;73.45;101852.78;2016767;29;33842;-70
2022/07/29 00:27:34;;;;;;;3.50;0.70;;;;;;;13.42;74.18;101851.88;2016769;29;30326;-70
2022/07/29 00:28:36;;;;;;;4.10;0.80;;;;;;;13.40;73.92;101853.72;2016254;29;31842;-70
2022/07/29 00:29:38;;;;;;;1.83;0.60;;;;;;;13.41;73.65;101849.25;2016407;29;20049;-70
2022/07/29 00:30:43;;;;;;;4.20;0.80;;;;;;;13.39;74.12;101853.75;2009108;29;26963;-70
2022/07/29 00:31:44;;;;;;;5.55;1.15;;;;;;;13.36;74.17;101849.31;2016843;29;31209;-70
2022/07/29 00:32:46;;;;;;;3.47;0.90;;;;;;;13.37;74.02;101851.09;2016619;29;29065;-70
2022/07/29 00:33:48;;;;;;;2.08;0.75;;;;;;;13.36;74.37;101852.88;2016087;29;32792;-70
2022/07/29 00:36:10;;;;;;;2.67;0.88;;;;;;;13.34;74.22;101846.66;2022188;29;28834;-70
2022/07/29 00:37:14;;;;;;;2.72;0.65;;;;;;;13.34;74.18;101838.59;2016947;29;20125;-70
2022/07/29 00:38:22;;;;;;;2.67;0.90;;;;;;;13.32;74.21;101845.81;2017267;29;23426;-70
2022/07/29 00:39:24;;;;;;;2.83;0.85;;;;;;;13.31;74.62;101845.81;2015892;29;28611;-70
2022/07/29 00:40:25;;;;;;;3.05;1.00;;;;;;;13.32;74.99;101836.84;2016963;29;33001;-70
2022/07/29 00:41:27;;;;;;;2.60;1.00;;;;;;;13.32;74.79;101836.84;2016584;29;22878;-70
2022/07/29 00:42:29;;;;;;;2.38;0.98;;;;;;;13.32;74.38;101836.84;2016912;29;30412;-70
2022/07/29 00:43:31;;;;;;;4.78;1.25;;;;;;;13.28;74.87;101833.31;2016945;29;28875;-70
2022/07/29 00:44:37;;;;;;;3.58;0.77;;;;;;;13.31;74.60;101827.88;2016887;29;27880;-70
2022/07/29 00:45:41;;;;;;;4.85;1.10;;;;;;;13.30;75.02;101826.09;2017028;29;26259;-70
2022/07/29 00:46:44;;;;;;;3.78;1.00;;;;;;;13.29;74.88;101828.81;2016439;29;20045;-70
2022/07/29 00:47:46;;;;;;;4.13;0.82;;;;;;;13.28;75.45;101830.63;2016867;29;26388;-70
2022/07/29 00:48:47;;;;;;;3.72;0.93;;;;;;;13.29;74.73;101824.31;2017406;29;20049;-70
2022/07/29 00:49:49;;;;;;;4.82;1.10;;;;;;;13.27;75.56;101826.16;2017022;29;24445;-70
2022/07/29 00:50:51;;;;;;;4.13;0.90;;;;;;;13.27;74.99;101819.88;2016579;29;38605;-70
2022/07/29 00:51:53;;;;;;;3.13;0.90;;;;;;;13.26;75.32;101826.16;2016571;29;23841;-70
2022/07/29 00:52:55;;;;;;;2.17;0.70;;;;;;;13.25;75.25;101814.53;2016689;29;20053;-70
2022/07/29 00:53:57;;;;;;;2.00;0.68;;;;;;;13.25;75.13;101814.53;2015804;29;31742;-69
2022/07/29 00:55:07;;;;;;;3.97;1.20;;;;;;;13.25;74.83;101822.59;2017524;29;20193;-70
2022/07/29 00:56:11;;;;;;;6.18;1.02;;;;;;;13.24;75.51;101823.50;2016077;29;25869;-70
2022/07/29 00:57:13;;;;;;;3.42;1.00;;;;;;;13.23;75.13;101816.38;2009273;29;27816;-70
2022/07/29 00:58:15;;;;;;;4.38;0.90;;;;;;;13.22;75.80;101817.28;2013125;29;26983;-69
2022/07/29 00:59:20;;;;;;;2.58;0.80;;;;;;;13.21;75.46;101815.53;2016484;29;20037;-70
2022/07/29 01:00:25;;;;;;;2.50;0.93;;;;;;;13.22;75.42;101811.91;2016617;29;20180;-70
2022/07/29 01:01:28;;;;;;;3.45;1.08;;;;;;;13.21;75.26;101810.16;2016382;29;26931;-71
2022/07/29 01:02:30;;;;;;;4.13;0.90;;;;;;;13.20;75.51;101816.44;2016684;29;23814;-70
2022/07/29 01:03:31;;;;;;;2.30;0.93;;;;;;;13.19;75.81;101811.97;2016580;29;34174;-70
2022/07/29 01:04:34;;;;;;;3.35;0.95;;;;;;;13.20;75.68;101812.84;2016850;29;26266;-70
2022/07/29 01:05:42;;;;;;;1.75;0.90;;;;;;;13.18;76.15;101804.81;2017173;29;20109;-70
2022/07/29 01:06:49;;;;;;;3.65;0.90;;;;;;;13.18;75.70;101810.19;2016744;29;33260;-70
2022/07/29 01:07:54;;;;;;;3.13;1.00;;;;;;;13.16;75.79;101814.72;2017192;29;20106;-70
2022/07/29 01:08:56;;;;;;;4.00;1.10;;;;;;;13.15;76.21;101802.19;2016300;29;20892;-70
2022/07/29 01:09:59;;;;;;;3.92;1.10;;;;;;;13.15;75.77;101804.88;2008640;29;34429;-70
2022/07/29 01:11:02;;;;;;;1.75;1.02;;;;;;;13.13;75.99;101799.53;2016462;29;24450;-70
2022/07/29 01:12:05;;;;;;;3.05;0.70;;;;;;;13.14;75.81;101803.13;2015756;29;33664;-70
2022/07/29 01:13:09;;;;;;;5.82;0.90;;;;;;;13.12;75.99;101799.56;2016162;29;28997;-70
2022/07/29 01:14:11;;;;;;;5.43;0.95;;;;;;;13.10;76.06;101788.84;2016203;29;26575;-71
2022/07/29 01:15:13;;;;;;;4.50;1.05;;;;;;;13.10;76.55;101793.31;2008516;29;25246;-70
2022/07/29 01:16:28;;;;;;;2.50;0.90;;;;;;;13.09;76.04;101788.88;2008903;29;26260;-70
2022/07/29 01:18:18;;;;;;;3.92;0.98;;;;;;;13.10;76.55;101793.31;2016997;29;32783;-70
2022/07/29 01:19:41;;;;;;;2.40;0.82;;;;;;;13.08;76.83;101790.69;2016243;29;27391;-70
2022/07/29 01:20:49;;;;;;;;;;;;;;;13.06;77.13;101794.31;2016864;29;29577;-70
2022/07/29 01:21:55;;;;;;;4.63;0.90;;;;;;;13.04;76.41;101783.56;2016672;29;40128;-70
2022/07/29 01:23:47;;;;;;;2.42;0.88;;;;;;;13.04;76.40;101786.25;2015481;29;39241;-70
2022/07/29 01:25:54;;;;;;;2.38;1.00;;;;;;;13.04;76.70;101790.75;2008789;29;26111;-70
2022/07/29 01:27:54;;;;;;;3.60;0.90;;;;;;;13.03;76.32;101795.25;2008719;29;33694;-70
2022/07/29 01:29:16;;;;;;;3.25;1.00;;;;;;;13.03;76.84;101788.97;2009320;29;22209;-70
2022/07/29 01:30:20;;;;;;;1.73;0.98;;;;;;;13.02;76.99;101792.59;2008764;29;31907;-70
2022/07/29 01:31:35;;;;;;;2.22;0.93;;;;;;;13.02;76.95;101789.91;2015636;29;28051;-70
2022/07/29 01:32:49;;;;;;;3.63;0.80;;;;;;;13.02;76.89;101787.22;2011768;29;20034;-70
2022/07/29 01:34:10;;;;;;;3.38;0.80;;;;;;;13.05;76.48;101785.34;2016595;29;20045;-70
2022/07/29 01:35:40;;;;;;;2.90;0.88;;;;;;;13.06;76.80;101783.53;2015924;29;29133;-69
2022/07/29 01:37:08;;;;;;;3.20;1.13;;;;;;;13.03;76.59;101781.81;2012949;29;35465;-70
2022/07/29 01:38:22;;;;;;;4.07;1.13;;;;;;;13.02;76.63;101776.47;2023070;29;25555;-70
2022/07/29 01:39:31;;;;;;;2.83;0.95;;;;;;;13.02;77.13;101781.84;2007260;29;30571;-70
2022/07/29 01:40:58;;;;;;;3.15;0.60;;;;;;;13.01;76.90;101772.91;2008332;29;35368;-70
2022/07/29 01:42:27;;;;;;;2.38;1.05;;;;;;;13.02;77.02;101774.66;2008860;29;32246;-70
2022/07/29 01:43:47;;;;;;;1.85;0.88;;;;;;;13.01;76.62;101775.59;2008143;29;29587;-70
2022/07/29 01:45:19;;;;;;;3.33;0.85;;;;;;;13.01;76.35;101774.69;1997853;29;31962;-70
2022/07/29 01:46:34;;;;;;;3.95;0.80;;;;;;;13.02;76.66;101771.09;2009968;29;25620;-70
2022/07/29 01:48:06;;;;;;;2.05;1.00;;;;;;;13.02;76.58;101771.09;2007978;29;30033;-70
2022/07/29 01:49:27;;;;;;;1.88;0.70;;;;;;;13.01;76.20;101761.25;2009359;29;27940;-70
2022/07/29 01:50:49;;;;;;;4.03;1.02;;;;;;;13.00;76.80;101765.75;2000276;29;28860;-69
2022/07/29 01:51:59;;;;;;;2.38;0.75;;;;;;;13.01;77.03;101764.84;2003425;29;26921;-70
2022/07/29 01:53:07;;;;;;;5.47;0.93;;;;;;;13.02;76.43;101763.03;2019372;29;23764;-70
2022/07/29 01:54:32;;;;;;;3.10;0.80;;;;;;;13.02;76.90;101758.53;2015118;29;30078;-70
2022/07/29 01:55:40;;;;;;;4.75;1.10;;;;;;;13.03;76.69;101756.72;2012049;29;29969;-71
2022/07/29 01:56:45;;;;;;;4.85;0.88;;;;;;;13.03;76.81;101760.31;2012040;29;25921;-70
2022/07/29 01:57:48;;;;;;;2.75;0.88;;;;;;;13.03;76.24;101749.56;2016968;29;33944;-70
2022/07/29 01:58:53;;;;;;;5.63;1.30;;;;;;;13.04;76.54;101754.00;2016394;29;20979;-70
2022/07/29 01:59:56;;;;;;;4.63;0.77;;;;;;;13.03;76.35;101751.34;2007983;29;29199;-70
2022/07/29 02:01:00;;;;;;;3.25;0.70;;;;;;;13.03;76.63;101752.25;2008392;29;25496;-69
2022/07/29 02:02:02;;;;;;;3.55;0.90;;;;;;;13.03;76.59;101752.25;2015925;29;27081;-70
2022/07/29 02:03:10;;;;;;;2.25;0.90;;;;;;;13.03;75.97;101745.97;2016399;29;31502;-69
2022/07/29 02:04:15;;;;;;;4.20;0.88;;;;;;;13.04;76.57;101753.13;2016096;29;22567;-71
2022/07/29 02:05:32;;;;;;;4.50;0.90;;;;;;;13.02;75.85;101739.72;2016131;29;32101;-70
2022/07/29 02:06:37;;;;;;;5.68;0.90;;;;;;;13.04;76.09;101748.63;2015178;29;26103;-70
2022/07/29 02:07:42;;;;;;;3.00;0.90;;;;;;;13.04;76.05;101743.25;2000807;29;33680;-70
2022/07/29 02:08:47;;;;;;;3.83;0.90;;;;;;;13.05;76.30;101736.09;2008566;29;29592;-70
2022/07/29 02:09:51;;;;;;;5.18;0.88;;;;;;;13.05;75.94;101747.72;2016463;29;29726;-70
2022/07/29 02:10:57;;;;;;;5.80;0.85;;;;;;;13.04;76.07;101745.06;2015270;29;37257;-70
2022/07/29 02:12:02;;;;;;;3.70;0.77;;;;;;;13.05;75.83;101742.34;2009352;29;28132;-70
2022/07/29 02:13:07;;;;;;;6.32;0.95;;;;;;;13.04;76.05;101735.19;2017343;29;20104;-70
2022/07/29 02:14:10;;;;;;;4.00;0.73;;;;;;;13.03;75.91;101730.75;2016242;29;23873;-70
2022/07/29 02:15:14;;;;;;;4.63;1.05;;;;;;;13.04;76.07;101743.25;2015168;29;20049;-70
2022/07/29 02:16:18;;;;;;;2.42;0.63;;;;;;;13.03;76.28;101738.81;2015669;29;32307;-70
2022/07/29 02:17:26;;;;;;;4.93;0.70;;;;;;;13.02;76.05;101737.03;2008078;29;33605;-70
2022/07/29 02:18:30;;;;;;;2.50;0.77;;;;;;;13.02;75.80;101734.31;2017124;29;27836;-70
2022/07/29 02:19:36;;;;;;;4.05;0.98;;;;;;;13.02;76.02;101738.84;2021963;29;31202;-70
2022/07/29 02:20:39;;;;;;;2.65;0.88;;;;;;;13.01;76.29;101734.34;2015010;29;28522;-70
2022/07/29 02:21:42;;;;;;;3.25;0.90;;;;;;;12.99;75.90;101735.28;2016555;29;20799;-70
2022/07/29 02:22:46;;;;;;;3.78;0.80;;;;;;;12.99;76.24;101737.06;2022901;29;20121;-70
2022/07/29 02:23:49;;;;;;;3.72;0.80;;;;;;;12.97;76.09;101731.75;2015851;29;22997;-69
2022/07/29 02:24:56;;;;;;;2.63;0.70;;;;;;;12.98;76.48;101738.00;2015706;29;33237;-70
2022/07/29 02:25:59;;;;;;;7.60;1.08;;;;;;;12.95;76.46;101730.00;2016397;29;20109;-70
2022/07/29 02:27:03;;;;;;;3.15;0.90;;;;;;;12.96;76.11;101729.09;2008976;29;25013;-70
2022/07/29 02:28:10;;;;;;;3.47;0.75;;;;;;;12.97;76.01;101736.22;2016117;29;33170;-70
2022/07/29 02:29:15;;;;;;;3.20;1.15;;;;;;;12.94;76.13;101736.31;2022843;29;20042;-70
2022/07/29 02:30:19;;;;;;;1.83;0.70;;;;;;;12.95;76.52;101733.56;2015562;29;32634;-70
2022/07/29 02:31:26;;;;;;;4.13;1.25;;;;;;;12.94;76.66;101737.19;2015060;29;31235;-70
2022/07/29 02:32:29;;;;;;;5.97;0.90;;;;;;;12.92;76.59;101735.41;2015789;29;32522;-70
2022/07/29 02:33:34;;;;;;;5.93;0.77;;;;;;;12.91;76.70;101737.22;2008723;29;31446;-70
2022/07/29 02:34:39;;;;;;;4.07;0.82;;;;;;;12.90;76.74;101739.94;2016224;29;20196;-70
2022/07/29 02:35:44;;;;;;;2.38;0.77;;;;;;;12.89;76.59;101739.06;2008929;29;27904;-70
2022/07/29 02:36:48;;;;;;;5.03;0.90;;;;;;;12.91;76.17;101737.22;2008816;29;28794;-70
2022/07/29 02:39:14;;;;;;;3.22;0.70;;;;;;;12.89;76.84;101741.75;2016159;29;33186;-70
2022/07/29 02:40:16;;;;;;;3.20;0.80;;;;;;;12.90;76.33;101746.22;2015807;29;20156;-70
2022/07/29 02:41:50;;;;;;;1.88;0.93;;;;;;;12.89;76.18;101739.06;2008579;29;30623;-70
2022/07/29 02:42:52;;;;;;;5.85;0.85;;;;;;;12.88;76.70;101748.03;2016731;29;20096;-70
2022/07/29 02:44:01;;;;;;;4.82;0.75;;;;;;;12.89;76.21;101736.38;2007937;29;29397;-70
2022/07/29 02:45:05;;;;;;;4.20;0.60;;;;;;;12.88;76.49;101739.97;2009450;29;24676;-70
2022/07/29 02:46:13;;;;;;;3.08;0.95;;;;;;;12.89;76.68;101739.06;2015381;29;27338;-70
2022/07/29 02:47:46;;;;;;;2.30;0.70;;;;;;;12.88;76.66;101739.97;2016491;29;20946;-70
2022/07/29 02:49:01;;;;;;;2.78;0.73;;;;;;;12.87;76.56;101740.91;2015210;29;31892;-70
2022/07/29 02:50:23;;;;;;;2.42;0.95;;;;;;;12.87;76.71;101742.72;2011535;29;20868;-70
2022/07/29 02:51:39;;;;;;;3.50;0.80;;;;;;;12.86;77.12;101736.44;2015701;29;25498;-70
2022/07/29 02:52:52;;;;;;;4.38;0.82;;;;;;;12.87;76.73;101731.97;2015799;29;24179;-70
2022/07/29 02:53:56;;;;;;;2.00;0.55;;;;;;;12.87;76.54;101730.16;2010878;29;31095;-70
2022/07/29 02:55:14;;;;;;;1.77;0.60;;;;;;;12.86;76.56;101732.88;2016972;29;32381;-70
2022/07/29 02:56:20;;;;;;;4.03;0.80;;;;;;;12.85;77.20;101726.63;2021044;29;28164;-70
2022/07/29 02:58:02;;;;;;;2.97;0.90;;;;;;;12.84;76.52;101723.97;2015376;29;34967;-70
2022/07/29 02:59:11;;;;;;;2.75;1.08;;;;;;;12.85;77.18;101721.25;2013422;29;29570;-70
2022/07/29 03:00:15;;;;;;;3.25;0.82;;;;;;;12.84;76.96;101724.84;2017161;29;21038;-70
2022/07/29 03:01:25;;;;;;;4.20;0.70;;;;;;;12.84;76.56;101730.22;2015129;29;33830;-70
2022/07/29 03:02:31;;;;;;;2.97;0.93;;;;;;;12.85;77.08;101725.72;2016166;29;29458;-70
2022/07/29 03:03:37;;;;;;;6.13;0.60;;;;;;;12.84;76.88;101722.16;2016530;29;25787;-70
2022/07/29 03:04:42;;;;;;;3.33;1.00;;;;;;;12.83;77.39;101723.09;2015346;29;40302;-70
2022/07/29 03:05:44;;;;;;;3.88;1.40;;;;;;;12.84;77.50;101730.22;2016321;29;20052;-70
2022/07/29 03:06:50;;;;;;;3.97;1.10;;;;;;;12.83;77.01;101730.22;2016228;29;26063;-71
2022/07/29 03:07:58;;;;;;;3.88;0.77;;;;;;;12.83;77.22;101727.53;2015196;29;30329;-70
2022/07/29 03:09:00;;;;;;;4.55;1.13;;;;;;;12.84;76.81;101722.16;2007334;29;23357;-70
2022/07/29 03:10:04;;;;;;;5.93;1.00;;;;;;;12.82;77.40;101718.59;2008326;29;31911;-70
2022/07/29 03:11:08;;;;;;;3.72;0.73;;;;;;;12.82;76.76;101725.78;2015811;29;20037;-70
2022/07/29 03:12:11;;;;;;;3.28;0.50;;;;;;;12.81;76.95;101722.19;2014864;29;27724;-69
2022/07/29 03:13:14;;;;;;;2.58;0.90;;;;;;;12.82;76.60;101723.09;2015470;29;24962;-70
2022/07/29 03:14:18;;;;;;;2.05;0.80;;;;;;;12.80;77.17;101717.75;2008352;29;20889;-70
2022/07/29 03:15:24;;;;;;;5.65;0.85;;;;;;;12.82;76.81;101732.03;2007701;29;28284;-70
2022/07/29 03:16:26;;;;;;;1.98;0.80;;;;;;;12.80;76.58;101725.81;2008668;29;25417;-70
2022/07/29 03:17:31;;;;;;;4.28;0.90;;;;;;;12.79;77.35;101729.41;2015129;29;32441;-70
2022/07/29 03:18:33;;;;;;;1.80;0.68;;;;;;;12.78;76.80;101722.28;2007812;29;26730;-70
2022/07/29 03:19:35;;;;;;;3.22;0.90;;;;;;;12.77;77.29;101720.50;2007532;29;27905;-70
2022/07/29 03:20:38;;;;;;;4.63;0.90;;;;;;;12.77;77.16;101723.19;2008337;29;37068;-70
2022/07/29 03:21:40;;;;;;;5.97;0.88;;;;;;;12.78;76.89;101724.97;2015611;29;20041;-70
2022/07/29 03:22:43;;;;;;;3.10;0.80;;;;;;;12.76;76.89;101722.31;2015189;29;32804;-70
2022/07/29 03:23:45;;;;;;;3.33;0.73;;;;;;;12.77;77.29;101720.50;2007639;29;35157;-70
2022/07/29 03:24:50;;;;;;;4.65;1.15;;;;;;;12.76;77.35;101721.44;2008788;29;29671;-70
2022/07/29 03:25:53;;;;;;;3.72;0.98;;;;;;;12.77;77.28;101718.69;2008076;29;28739;-70
2022/07/29 03:26:56;;;;;;;6.40;0.80;;;;;;;12.77;77.24;101728.56;2019544;29;21278;-70
2022/07/29 03:27:58;;;;;;;4.82;0.90;;;;;;;12.75;77.02;101715.16;2014900;29;35247;-70
2022/07/29 03:29:00;;;;;;;2.35;0.70;;;;;;;12.75;77.61;101716.97;2015794;29;27470;-70
2022/07/29 03:30:03;;;;;;;2.67;0.77;;;;;;;12.76;77.25;101716.06;2015380;29;25339;-70
2022/07/29 03:31:05;;;;;;;3.72;0.93;;;;;;;12.76;77.23;101708.88;2016377;29;24246;-70
2022/07/29 03:32:07;;;;;;;5.90;0.80;;;;;;;12.76;77.06;101713.38;2015992;29;26023;-70
2022/07/29 03:33:09;;;;;;;3.90;0.88;;;;;;;12.75;77.43;101712.47;2015392;29;21599;-70
2022/07/29 03:34:14;;;;;;;3.78;0.98;;;;;;;12.76;76.94;101716.94;2015376;29;20042;-71
2022/07/29 03:35:16;;;;;;;3.50;0.98;;;;;;;12.78;77.30;101719.59;2016357;29;26374;-71
2022/07/29 03:36:18;;;;;;;3.65;0.90;;;;;;;12.77;77.45;101710.63;2014662;29;34503;-71
2022/07/29 03:37:20;;;;;;;4.50;0.95;;;;;;;12.77;77.24;101710.63;2015209;29;34069;-71
2022/07/29 03:38:27;;;;;;;3.25;1.25;;;;;;;12.77;76.73;101713.31;2015905;29;27777;-70
2022/07/29 03:39:35;;;;;;;3.60;0.80;;;;;;;12.78;76.94;101711.53;2023197;29;24493;-71
2022/07/29 03:40:51;;;;;;;6.03;0.93;;;;;;;12.79;77.06;101710.59;2015797;29;20074;-71
2022/07/29 03:41:57;;;;;;;4.47;0.90;;;;;;;12.78;76.88;101709.72;2010554;29;27377;-71
2022/07/29 03:43:01;;;;;;;4.57;0.60;;;;;;;12.78;77.03;101712.41;2017164;29;20049;-70
2022/07/29 03:44:08;;;;;;;2.55;0.88;;;;;;;12.78;77.33;101715.09;2015180;29;30688;-71
2022/07/29 03:45:17;;;;;;;4.45;1.05;;;;;;;12.78;76.72;101711.53;2014783;29;30478;-70
2022/07/29 03:46:23;;;;;;;3.47;0.70;;;;;;;12.77;77.13;101718.69;2015235;29;23492;-71
2022/07/29 03:47:28;;;;;;;1.77;0.75;;;;;;;12.77;77.30;101707.06;2011130;29;20049;-70
2022/07/29 03:48:58;;;;;;;2.85;1.15;;;;;;;12.76;76.98;101710.69;2016480;29;34376;-70
2022/07/29 03:50:06;;;;;;;4.25;0.88;;;;;;;12.77;76.93;101712.44;2017228;29;21085;-71
2022/07/29 03:51:08;;;;;;;3.30;0.85;;;;;;;12.77;76.87;101709.75;2016724;29;29851;-71
2022/07/29 03:52:10;;;;;;;2.28;0.80;;;;;;;12.77;77.29;101715.13;2016874;29;33929;-71
2022/07/29 03:53:13;;;;;;;2.08;0.82;;;;;;;12.76;77.47;101713.38;2016507;29;29354;-71
2022/07/29 03:54:15;;;;;;;3.30;0.70;;;;;;;12.74;77.73;101708.03;2016184;29;40783;-71
2022/07/29 03:55:17;;;;;;;4.35;0.93;;;;;;;12.74;77.04;101708.03;2017553;29;20899;-71
2022/07/29 03:56:24;;;;;;;4.45;0.95;;;;;;;12.75;77.04;101711.59;2016775;29;35165;-70
2022/07/29 03:57:30;;;;;;;4.38;0.70;;;;;;;12.74;77.12;101707.09;2010431;29;20042;-70
2022/07/29 03:58:32;;;;;;;6.05;1.13;;;;;;;12.75;77.00;101714.28;2018338;29;23339;-70
2022/07/29 03:59:35;;;;;;;2.83;1.00;;;;;;;12.74;77.77;101707.09;2015277;29;34665;-71
2022/07/29 04:00:39;;;;;;;2.47;0.80;;;;;;;12.74;77.54;101704.41;2009590;29;20184;-71
2022/07/29 04:01:42;;;;;;;3.38;0.77;;;;;;;12.75;77.17;101711.59;2016270;29;37562;-70
2022/07/29 04:02:48;;;;;;;2.53;0.70;;;;;;;12.75;77.74;101706.22;2016790;29;25962;-71
2022/07/29 04:03:51;;;;;;;6.63;0.75;;;;;;;12.74;77.00;101707.09;2016106;29;36912;-70
2022/07/29 04:04:55;;;;;;;2.22;0.70;;;;;;;12.75;77.18;101714.28;2017006;29;39779;-71
2022/07/29 04:06:07;;;;;;;5.20;1.08;;;;;;;12.74;77.36;101712.47;2017055;29;20033;-70
2022/07/29 04:07:14;;;;;;;3.75;0.95;;;;;;;12.74;77.23;101713.41;2017485;29;27561;-71
2022/07/29 04:08:16;;;;;;;2.65;0.93;;;;;;;12.75;77.32;101708.91;2016330;29;32481;-70
2022/07/29 04:09:20;;;;;;;2.33;1.05;;;;;;;12.75;77.33;101708.91;2009053;29;31561;-71
2022/07/29 04:10:25;;;;;;;2.80;0.77;;;;;;;12.77;77.63;101704.38;2017456;29;28202;-70
2022/07/29 04:11:31;;;;;;;3.22;0.73;;;;;;;12.76;77.58;101706.19;2016252;29;32838;-71
2022/07/29 04:12:33;;;;;;;4.05;1.17;;;;;;;12.78;76.97;101703.47;2016576;29;26644;-71
2022/07/29 04:13:35;;;;;;;3.17;0.80;;;;;;;12.78;76.66;101703.47;2016377;29;29509;-70
2022/07/29 04:14:36;;;;;;;4.03;0.90;;;;;;;12.79;77.46;101710.59;2017064;29;20167;-71
2022/07/29 04:15:39;;;;;;;2.53;0.80;;;;;;;12.80;76.90;101704.31;2016530;29;20041;-70
2022/07/29 04:16:41;;;;;;;2.38;0.80;;;;;;;12.80;76.84;101702.50;2017574;29;28040;-71
2022/07/29 04:17:45;;;;;;;3.47;0.90;;;;;;;12.83;76.82;101700.66;2017291;29;22796;-70
2022/07/29 04:18:49;;;;;;;5.75;0.80;;;;;;;12.85;76.47;101698.84;2017222;29;31071;-71
2022/07/29 04:19:53;;;;;;;4.20;0.70;;;;;;;12.85;76.89;101704.22;2016711;29;29246;-70
2022/07/29 04:20:55;;;;;;;4.38;0.65;;;;;;;12.84;76.95;101697.97;2017093;29;30021;-71
2022/07/29 04:22:00;;;;;;;3.30;0.70;;;;;;;12.86;76.92;101704.19;2016783;29;32665;-71
2022/07/29 04:23:02;;;;;;;2.42;0.88;;;;;;;12.87;76.54;101705.97;2008934;29;26450;-71
2022/07/29 04:24:04;;;;;;;2.65;0.90;;;;;;;12.87;76.73;101705.97;2008693;29;35674;-71
2022/07/29 04:25:06;;;;;;;2.40;0.70;;;;;;;12.88;76.31;101706.84;2015706;29;30408;-71
2022/07/29 04:26:10;;;;;;;4.25;0.65;;;;;;;12.87;76.51;101697.91;2016787;29;20132;-71
2022/07/29 04:27:12;;;;;;;4.03;0.82;;;;;;;12.90;76.67;101703.22;2016851;29;24952;-71
2022/07/29 04:28:16;;;;;;;2.72;0.65;;;;;;;12.90;75.99;101703.22;2016729;29;20053;-71
2022/07/29 04:29:18;;;;;;;2.53;0.65;;;;;;;12.91;76.50;101710.34;2016975;29;26146;-71
2022/07/29 04:30:20;;;;;;;3.53;1.00;;;;;;;12.91;76.41;101704.97;2023935;29;21747;-71
2022/07/29 04:31:21;;;;;;;1.73;0.70;;;;;;;12.92;76.31;101706.75;2024496;29;24075;-71
2022/07/29 04:32:26;;;;;;;3.45;1.00;;;;;;;12.90;76.15;101708.59;2016675;29;33734;-70
2022/07/29 04:33:28;;;;;;;3.92;0.75;;;;;;;12.93;76.08;101713.91;2017382;29;30525;-71
2022/07/29 04:34:30;;;;;;;4.68;0.88;;;;;;;12.93;76.35;101705.84;2016981;29;23854;-71
2022/07/29 04:35:38;;;;;;;4.68;0.90;;;;;;;12.93;76.54;101697.75;2017368;29;26913;-71
2022/07/29 04:36:44;;;;;;;6.75;1.02;;;;;;;12.95;76.61;101695.94;2017104;29;20052;-71
2022/07/29 04:37:49;;;;;;;4.15;0.75;;;;;;;12.95;76.10;101701.31;2017422;29;24617;-71
2022/07/29 04:38:51;;;;;;;4.25;1.08;;;;;;;12.98;76.12;101695.88;2016633;29;28118;-71
2022/07/29 04:39:52;;;;;;;5.88;0.70;;;;;;;12.99;76.23;101691.38;2017160;29;28761;-71
2022/07/29 04:40:54;;;;;;;3.25;0.70;;;;;;;12.98;76.46;101689.63;2015956;29;25603;-71
2022/07/29 04:41:56;;;;;;;4.10;0.82;;;;;;;13.00;76.04;101701.22;2017602;29;20189;-71
2022/07/29 04:43:00;;;;;;;3.92;0.82;;;;;;;13.01;75.89;101689.56;2017128;29;21956;-71
2022/07/29 04:44:04;;;;;;;2.40;0.75;;;;;;;12.98;76.23;101695.88;2016453;29;28756;-71
2022/07/29 04:45:07;;;;;;;4.35;0.63;;;;;;;13.01;76.40;101694.03;2016608;29;20813;-71
2022/07/29 04:46:08;;;;;;;5.35;1.17;;;;;;;13.01;75.67;101689.56;2024206;29;27942;-71
2022/07/29 04:47:10;;;;;;;2.55;1.02;;;;;;;13.02;76.20;101702.06;2023337;29;28074;-70
2022/07/29 04:48:12;;;;;;;2.50;0.90;;;;;;;13.05;76.31;101698.44;2016528;29;26693;-70
2022/07/29 04:49:16;;;;;;;3.13;0.70;;;;;;;13.06;75.40;101694.81;2016553;29;31507;-71
2022/07/29 04:50:18;;;;;;;4.53;0.80;;;;;;;13.05;75.72;101702.00;2017098;29;25590;-70
2022/07/29 04:51:22;;;;;;;4.47;0.73;;;;;;;13.05;76.21;101696.63;2016570;29;37642;-71
2022/07/29 04:52:24;;;;;;;5.22;0.80;;;;;;;13.06;75.77;101702.88;2017312;29;26161;-70
2022/07/29 04:53:26;;;;;;;2.55;0.70;;;;;;;13.07;76.14;101699.31;2015669;29;29752;-71
2022/07/29 04:54:27;;;;;;;4.60;0.73;;;;;;;13.08;76.06;101693.00;2016569;29;26849;-70
2022/07/29 04:55:29;;;;;;;2.78;0.93;;;;;;;13.08;76.01;101691.22;2016568;29;25836;-71
2022/07/29 04:56:33;;;;;;;3.40;0.82;;;;;;;13.09;76.28;101702.84;2016607;29;25888;-71
2022/07/29 04:57:38;;;;;;;3.20;0.70;;;;;;;13.08;76.28;101693.91;2015854;29;34092;-71
2022/07/29 04:58:42;;;;;;;3.15;0.82;;;;;;;13.09;75.87;101695.66;2015857;29;28568;-71
2022/07/29 04:59:43;;;;;;;2.72;0.60;;;;;;;13.10;75.63;101694.75;2015997;29;26339;-71
2022/07/29 05:00:45;;;;;;;2.78;0.80;;;;;;;13.11;76.15;101690.25;2016389;29;29494;-71
2022/07/29 05:01:47;;;;;;;4.13;1.00;;;;;;;13.12;75.59;101705.47;2023870;29;20059;-71
2022/07/29 05:02:49;;;;;;;2.78;0.85;;;;;;;13.13;76.20;101694.66;2024148;29;30996;-70
2022/07/29 05:03:51;;;;;;;3.55;0.80;;;;;;;13.13;75.25;101700.03;2016862;29;25395;-70
2022/07/29 05:04:57;;;;;;;3.72;0.85;;;;;;;13.15;76.04;101694.63;2017415;29;25913;-70
2022/07/29 05:05:59;;;;;;;3.85;0.73;;;;;;;13.16;76.11;101699.09;2015862;29;28783;-71
2022/07/29 05:07:01;;;;;;;4.18;0.77;;;;;;;13.18;75.34;101695.44;2016563;29;38739;-71
2022/07/29 05:08:03;;;;;;;3.33;0.88;;;;;;;13.20;75.34;101690.03;2016875;29;23040;-71
2022/07/29 05:09:05;;;;;;;6.30;0.82;;;;;;;13.22;75.52;101687.31;2016104;29;27614;-71
2022/07/29 05:10:08;;;;;;;5.15;0.90;;;;;;;13.22;75.44;101690.00;2016504;29;20160;-71
2022/07/29 05:11:10;;;;;;;4.60;0.77;;;;;;;13.23;75.92;101689.09;2016161;29;28403;-71